Terminal Aerodrome Forecast
Issued by NWS Atlanta, GA

Home | Current Version | Previous Version | Text Only | Print | Product List | Glossary On
Versions: 1 2 3 4 5 6 7 8 9 10 11 12 13 14 15 16 17 18 19 20
000
FTUS42 KFFC 050522
TAFCSG
TAF
KCSG 050522Z 0506/0606 20009KT P6SM BKN012
     FM050900 20009KT 5SM -RA BR SCT006 BKN012
     FM051200 21011KT 4SM -RA BR OVC008
      TEMPO 0514/0518 1SM BR BKN006
     FM052000 33012KT P6SM VCSH OVC012
     FM052200 34011KT P6SM OVC012=

USA.gov is the U.S. government's official web portal to all federal, state and local government web resources and services.